Chicago, Illinois
Traffic Map
Current Weather Conditions
Chicago, Illinois
Scattered Clouds
Scattered Clouds
69°
Feels Like: 69°
Wind Chill: 69° Ceiling: Unl
Heat Index: 69° Visibility: 10mi
Dew Point: 58° Wind: 0mph
Humidity: 68% Direction: ° ()
Pressure: 30.02in Gusts: 0mph
Raw Report DataKMDW 301153Z 00000KT 10SM FEW080 SCT250 21/14 A3002 RMK AO2 SLP158 T02060144 10211 20183 53006 $
Traffic Incident Summary
Active as of:
Severity:
Category:
InformationThere was an issue retrieving the traffic information for this location. Please try a different location or try again shortly.
Advertisements
Track Severe Weather on mobile